Forside
METAR-TAF:

METAR-TAF

Lufthavne :

Gran Canaria Lufthavn

Gran Canaria, Spanien

Breddekreds: 27-56N, længdekreds: 015-23W, højde: 23 m

Aktuelle vejr

Denne rapport blev lavet for 26 minutter siden, kl. 02:00 UTC
Vind 5 kt fra vestnordvest
Temperatur 15°C
Fugtighed 77%
Tryk 1019 hPa
Sigt 10 km eller mere
Nogle få skyer i en højde af 2500 ft

METAR: GCLP 210200Z 29005KT 9999 FEW025 15/11 Q1019 NOSIG

Tid: 02:26 (02:26 UTC)

Vejrudsigter

Denne rapport blev lavet for 6 timer og 26 minutter siden, kl. 20:00 UTC
Foreløbig gælder fra 20 på 21 UTC til 21 på 21 UTC
Vind 9 kt fra nordvest
Sigt 10 km eller mere
Spredte skyer i en højde af 3000 ft
ændring
fra 21 på 09 UTC til 21 på 11 UTC
Vind 10 kt fra sydøst
ændring
fra 21 på 18 UTC til 21 på 21 UTC
Vind 5 kt fra varierende retninger

TAF: GCLP 202000Z 2021/2121 32009KT 9999 SCT030 TX23/2114Z TN15/2106Z BECMG 2109/2111 13010KT BECMG 2118/2121 VRB05KT

Vejrobservationer og prognoser fra mere end 4000 lufthavne (METAR og TAF).

De gule og røde prikker repræsenterer de meteorologiske stationer.

Flyt musen over at se navnet på stationen.

Så klik over at se vejr observationer og prognoser.

At skifte det kort: Klik på de grønne knapper med et sort kors for at zoome ind; på den grønne knap med en bindestreg for at zoome ud; eller på de grønne pile for tilstødende kort.


METAR-TAF: